createdAt,value
2023-02-28T00:01:43.380Z,1.90
2023-02-28T00:04:11.179Z,1.63
2023-02-28T00:06:39.012Z,2.00
2023-02-28T00:09:06.795Z,1.90
2023-02-28T00:11:34.561Z,1.90
2023-02-28T00:14:03.874Z,2.17
2023-02-28T00:16:31.689Z,2.20
2023-02-28T00:18:59.520Z,1.87
2023-02-28T00:21:27.748Z,2.70
2023-02-28T00:23:55.703Z,2.13
2023-02-28T00:26:23.462Z,2.40
2023-02-28T00:28:53.605Z,2.00
2023-02-28T00:31:22.766Z,1.90
2023-02-28T00:33:51.816Z,2.47
2023-02-28T00:36:19.644Z,2.40
2023-02-28T00:38:47.432Z,2.13
2023-02-28T00:41:15.284Z,2.20
2023-02-28T00:43:43.490Z,2.17
2023-02-28T00:46:11.575Z,2.70
2023-02-28T00:48:40.726Z,2.53
2023-02-28T00:51:08.554Z,2.17
2023-02-28T00:53:36.337Z,2.20
2023-02-28T00:56:04.668Z,2.60
2023-02-28T00:58:33.637Z,3.07
2023-02-28T01:01:01.407Z,2.10
2023-02-28T01:03:29.199Z,2.27
2023-02-28T01:05:58.469Z,2.10
2023-02-28T01:08:27.615Z,2.33
2023-02-28T01:10:55.473Z,2.30
2023-02-28T01:13:24.004Z,2.10
2023-02-28T01:15:54.537Z,2.53
2023-02-28T01:18:23.235Z,2.37
2023-02-28T01:20:52.609Z,2.60
2023-02-28T01:23:24.162Z,2.43
2023-02-28T01:25:52.105Z,2.33
2023-02-28T01:28:19.992Z,2.43
2023-02-28T01:30:50.336Z,2.40
2023-02-28T01:33:18.192Z,2.17
2023-02-28T01:35:46.013Z,2.40
2023-02-28T01:38:22.294Z,2.10
2023-02-28T01:40:52.387Z,2.40
2023-02-28T01:43:24.564Z,2.43
2023-02-28T01:45:52.718Z,3.17
2023-02-28T01:48:21.692Z,2.30
2023-02-28T01:50:50.903Z,2.30
2023-02-28T01:53:21.305Z,2.23
2023-02-28T01:55:54.193Z,2.33
2023-02-28T01:58:22.521Z,2.33
2023-02-28T02:00:51.083Z,2.53
2023-02-28T02:03:21.690Z,2.33
2023-02-28T02:05:49.736Z,2.43
2023-02-28T02:08:20.653Z,2.23
2023-02-28T02:10:54.849Z,2.40
2023-02-28T02:13:56.044Z,2.63
2023-02-28T02:16:39.370Z,2.60
2023-02-28T02:19:25.509Z,2.57
2023-02-28T02:22:23.527Z,2.90
2023-02-28T02:25:12.727Z,2.90
2023-02-28T02:27:55.714Z,2.80
2023-02-28T02:30:44.871Z,2.67
2023-02-28T02:33:32.149Z,2.70
2023-02-28T02:36:06.040Z,2.93
2023-02-28T02:38:36.839Z,2.50
2023-02-28T02:41:14.141Z,2.50
2023-02-28T02:43:49.824Z,2.93
2023-02-28T02:46:22.813Z,2.90
2023-02-28T02:48:54.955Z,2.53
2023-02-28T02:51:26.026Z,2.43
2023-02-28T02:54:00.127Z,2.60
2023-02-28T02:56:31.210Z,2.30
2023-02-28T02:59:03.780Z,2.57
2023-02-28T03:01:33.316Z,2.67
2023-02-28T03:04:04.628Z,2.37
2023-02-28T03:06:33.770Z,2.27
2023-02-28T03:09:02.526Z,2.63
2023-02-28T03:11:31.591Z,3.03
2023-02-28T03:14:27.996Z,2.70
2023-02-28T03:17:26.778Z,2.70
2023-02-28T03:20:08.489Z,2.80
2023-02-28T03:22:58.933Z,2.77
2023-02-28T03:25:33.730Z,2.70
2023-02-28T03:28:07.091Z,3.00
2023-02-28T03:30:43.515Z,2.97
2023-02-28T03:33:16.744Z,2.90
2023-02-28T03:35:49.563Z,3.10
2023-02-28T03:38:23.985Z,3.40
2023-02-28T03:40:56.200Z,3.50
2023-02-28T03:43:29.316Z,2.97
2023-02-28T03:45:58.298Z,3.10
2023-02-28T03:48:32.735Z,3.20
2023-02-28T03:51:01.980Z,3.30
2023-02-28T03:53:34.675Z,3.17
2023-02-28T03:56:07.844Z,3.60
2023-02-28T03:58:43.204Z,3.30
2023-02-28T04:01:15.008Z,3.13
2023-02-28T04:03:42.863Z,3.47
2023-02-28T04:06:17.799Z,3.43
2023-02-28T04:08:46.967Z,3.70
2023-02-28T04:11:21.303Z,3.27
2023-02-28T04:13:49.205Z,3.27
2023-02-28T04:16:32.424Z,2.97
2023-02-28T04:19:03.802Z,3.07
2023-02-28T04:21:32.500Z,3.20
2023-02-28T04:24:02.357Z,3.57
2023-02-28T04:26:31.715Z,3.80
2023-02-28T04:29:00.348Z,4.00
2023-02-28T04:31:28.964Z,4.10
2023-02-28T04:33:57.009Z,4.30
2023-02-28T04:36:24.809Z,3.53
2023-02-28T04:38:52.607Z,3.70
2023-02-28T04:41:23.852Z,3.70
2023-02-28T04:43:52.776Z,3.30
2023-02-28T04:46:21.731Z,3.30
2023-02-28T04:48:49.607Z,3.90
2023-02-28T04:51:20.255Z,4.37
2023-02-28T04:53:49.816Z,3.90
2023-02-28T04:56:19.212Z,3.33
2023-02-28T04:58:49.037Z,4.20
2023-02-28T05:01:23.040Z,3.60
2023-02-28T05:03:52.079Z,3.80
2023-02-28T05:06:21.354Z,3.93
2023-02-28T05:08:49.611Z,3.60
2023-02-28T05:11:20.043Z,3.50
2023-02-28T05:13:49.926Z,4.10
2023-02-28T05:16:18.786Z,3.63
2023-02-28T05:18:47.041Z,3.67
2023-02-28T05:21:28.769Z,4.00
2023-02-28T05:23:57.935Z,3.73
2023-02-28T05:26:26.470Z,4.20
2023-02-28T05:28:56.060Z,3.53
2023-02-28T05:31:24.163Z,3.63
2023-02-28T05:33:52.295Z,3.80
2023-02-28T05:36:20.059Z,3.93
2023-02-28T05:38:49.886Z,4.93
2023-02-28T05:41:20.142Z,4.10
2023-02-28T05:43:48.529Z,3.97
2023-02-28T05:46:18.317Z,4.67
2023-02-28T05:48:48.936Z,4.63
2023-02-28T05:51:17.731Z,4.07
2023-02-28T05:53:45.763Z,4.80
2023-02-28T05:56:13.618Z,4.73
2023-02-28T05:58:41.409Z,4.20
2023-02-28T06:01:25.741Z,3.97
2023-02-28T06:03:55.506Z,4.60
2023-02-28T06:06:23.393Z,3.77
2023-02-28T06:08:51.159Z,3.97
2023-02-28T06:11:20.744Z,4.40
2023-02-28T06:13:48.771Z,4.00
2023-02-28T06:16:16.574Z,4.60
2023-02-28T06:18:45.719Z,4.27
2023-02-28T06:21:14.444Z,4.03
2023-02-28T06:23:42.233Z,3.83
2023-02-28T06:26:09.991Z,4.33
2023-02-28T06:28:37.787Z,4.57
2023-02-28T06:31:09.584Z,4.57
2023-02-28T06:33:38.051Z,4.93
2023-02-28T06:36:08.610Z,4.10
2023-02-28T06:38:36.698Z,4.87
2023-02-28T06:41:05.328Z,3.87
2023-02-28T06:43:36.706Z,4.80
2023-02-28T06:46:07.310Z,4.80
2023-02-28T06:48:36.117Z,4.17
2023-02-28T06:51:07.428Z,4.97
2023-02-28T06:53:35.514Z,4.60
2023-02-28T06:56:07.468Z,4.70
2023-02-28T06:58:35.509Z,5.07
2023-02-28T07:01:04.340Z,4.87
2023-02-28T07:03:34.397Z,5.33
2023-02-28T07:06:02.667Z,5.07
2023-02-28T07:08:32.591Z,5.80
2023-02-28T07:11:00.691Z,4.97
2023-02-28T07:13:28.570Z,5.30
2023-02-28T07:15:57.524Z,5.13
2023-02-28T07:18:25.790Z,4.87
2023-02-28T07:20:54.462Z,4.83
2023-02-28T07:23:22.856Z,4.87
2023-02-28T07:25:53.093Z,5.13
2023-02-28T07:28:20.852Z,5.30
2023-02-28T07:30:49.066Z,5.20
2023-02-28T07:33:17.134Z,5.03
2023-02-28T07:35:45.020Z,4.37
2023-02-28T07:38:14.520Z,5.40
2023-02-28T07:40:42.314Z,4.90
2023-02-28T07:43:11.456Z,4.63
2023-02-28T07:45:39.234Z,4.57
2023-02-28T07:48:07.169Z,5.30
2023-02-28T07:50:35.544Z,4.80
2023-02-28T07:53:03.481Z,5.17
2023-02-28T07:55:31.271Z,4.47
2023-02-28T07:57:59.306Z,5.07
2023-02-28T08:00:29.906Z,5.43
2023-02-28T08:02:57.679Z,5.37
2023-02-28T08:05:25.471Z,4.83
2023-02-28T08:07:54.225Z,5.57
2023-02-28T08:10:21.992Z,4.57
2023-02-28T08:12:49.779Z,5.00
2023-02-28T08:15:17.739Z,4.73
2023-02-28T08:17:46.872Z,4.90
2023-02-28T08:20:14.767Z,5.70
2023-02-28T08:22:44.815Z,4.73
2023-02-28T08:25:13.655Z,4.80
2023-02-28T08:27:41.693Z,5.13
2023-02-28T08:30:12.242Z,5.67
2023-02-28T08:32:40.321Z,5.00
2023-02-28T08:35:11.276Z,5.33
2023-02-28T08:37:39.267Z,5.20
2023-02-28T08:40:08.516Z,5.10
2023-02-28T08:42:36.329Z,4.50
2023-02-28T08:45:04.602Z,5.43
2023-02-28T08:47:32.394Z,5.50
2023-02-28T08:50:00.169Z,4.87
2023-02-28T08:52:29.259Z,4.83
2023-02-28T08:54:59.871Z,4.40
2023-02-28T08:57:28.314Z,4.90
2023-02-28T08:59:56.139Z,4.60
2023-02-28T09:02:23.918Z,4.77
2023-02-28T09:04:51.710Z,5.07
2023-02-28T09:07:19.479Z,4.77
2023-02-28T09:09:55.544Z,5.23
2023-02-28T09:12:23.823Z,4.83
2023-02-28T09:14:52.007Z,4.67
2023-02-28T09:17:20.786Z,4.83
2023-02-28T09:19:49.876Z,5.00
2023-02-28T09:22:17.915Z,5.23
2023-02-28T09:24:46.011Z,4.97
2023-02-28T09:27:15.121Z,4.77
2023-02-28T09:29:42.887Z,4.73
2023-02-28T09:32:10.734Z,4.93
2023-02-28T09:34:39.226Z,4.70
2023-02-28T09:37:07.025Z,4.63
2023-02-28T09:39:34.795Z,3.97
2023-02-28T09:42:05.439Z,4.70
2023-02-28T09:44:39.213Z,4.70
2023-02-28T09:47:14.862Z,4.17
2023-02-28T09:49:47.144Z,4.07
2023-02-28T09:52:20.218Z,4.10
2023-02-28T09:54:48.158Z,4.37
2023-02-28T09:57:21.700Z,4.33
2023-02-28T10:00:18.252Z,4.07
2023-02-28T10:02:59.003Z,4.40
2023-02-28T10:05:30.866Z,4.20
2023-02-28T10:08:05.973Z,4.60
2023-02-28T10:10:40.818Z,4.10
2023-02-28T10:13:18.443Z,3.70
2023-02-28T10:15:51.975Z,3.77
2023-02-28T10:18:27.015Z,4.23
2023-02-28T10:20:56.908Z,3.80
2023-02-28T10:23:27.966Z,4.00
2023-02-28T10:25:59.515Z,3.63
2023-02-28T10:28:28.637Z,4.00
2023-02-28T10:30:59.216Z,4.00
2023-02-28T10:33:31.907Z,3.80
2023-02-28T10:36:00.183Z,4.10
2023-02-28T10:38:29.977Z,3.27
2023-02-28T10:41:06.955Z,3.70
2023-02-28T10:43:35.265Z,4.20
2023-02-28T10:46:13.366Z,3.40
2023-02-28T10:48:43.836Z,4.00
2023-02-28T10:51:13.712Z,4.30
2023-02-28T10:54:00.603Z,4.00
2023-02-28T10:56:30.892Z,3.30
2023-02-28T10:59:00.868Z,4.00
2023-02-28T11:01:39.964Z,3.80
2023-02-28T11:04:20.546Z,3.70
2023-02-28T11:06:48.833Z,3.37
2023-02-28T11:09:23.722Z,3.80
2023-02-28T11:11:53.413Z,3.97
2023-02-28T11:14:24.200Z,3.90
2023-02-28T11:16:54.074Z,3.80
2023-02-28T11:19:25.660Z,3.93
2023-02-28T11:21:57.502Z,4.10
2023-02-28T11:24:29.242Z,3.83
2023-02-28T11:26:57.755Z,4.43
2023-02-28T11:29:27.956Z,4.00
2023-02-28T11:32:13.557Z,3.80
2023-02-28T11:34:42.889Z,3.23
2023-02-28T11:37:15.139Z,4.20
2023-02-28T11:39:43.360Z,4.20
2023-02-28T11:42:31.400Z,4.77
2023-02-28T11:45:16.085Z,4.40
2023-02-28T11:47:50.838Z,3.77
2023-02-28T11:50:34.151Z,3.67
2023-02-28T11:53:05.757Z,3.80
2023-02-28T11:55:38.496Z,4.03
2023-02-28T11:58:42.887Z,4.20
2023-02-28T12:01:26.136Z,4.57
2023-02-28T12:04:05.378Z,4.70
2023-02-28T12:06:36.146Z,4.40
2023-02-28T12:09:25.062Z,4.57
2023-02-28T12:11:57.129Z,4.33
2023-02-28T12:14:59.956Z,3.70
2023-02-28T12:17:36.850Z,5.20
2023-02-28T12:20:15.564Z,4.97
2023-02-28T12:22:51.264Z,4.60
2023-02-28T12:25:47.828Z,4.43
2023-02-28T12:28:19.674Z,4.77
2023-02-28T12:30:55.300Z,4.70
2023-02-28T12:33:28.708Z,5.27
2023-02-28T12:36:00.799Z,4.90
2023-02-28T12:38:31.413Z,4.70
2023-02-28T12:41:03.304Z,4.60
2023-02-28T12:43:35.193Z,4.67
2023-02-28T12:46:09.843Z,4.50
2023-02-28T12:48:44.263Z,4.40
2023-02-28T12:51:15.566Z,5.30
2023-02-28T12:53:56.397Z,4.77
2023-02-28T12:56:35.428Z,4.50
2023-02-28T12:59:12.444Z,4.53
2023-02-28T13:02:02.292Z,4.60
2023-02-28T13:04:59.801Z,4.83
2023-02-28T13:07:57.495Z,5.00
2023-02-28T13:10:26.097Z,5.20
2023-02-28T13:12:56.340Z,5.20
2023-02-28T13:15:28.936Z,4.93
2023-02-28T13:17:59.117Z,4.97
2023-02-28T13:20:30.753Z,5.50
2023-02-28T13:23:02.090Z,5.43
2023-02-28T13:25:58.540Z,5.63
2023-02-28T13:29:09.290Z,5.70
2023-02-28T13:32:13.680Z,4.90
2023-02-28T13:34:42.677Z,5.20
2023-02-28T13:37:38.399Z,4.80
2023-02-28T13:40:30.443Z,4.23
2023-02-28T13:42:58.302Z,5.20
2023-02-28T13:45:28.840Z,4.40
2023-02-28T13:48:01.401Z,4.97
2023-02-28T13:50:33.650Z,5.10
2023-02-28T13:53:31.387Z,4.73
2023-02-28T13:56:09.290Z,4.97
2023-02-28T13:58:55.273Z,5.47
2023-02-28T14:01:44.541Z,5.97
2023-02-28T14:04:44.790Z,5.10
2023-02-28T14:07:20.290Z,5.73
2023-02-28T14:09:53.367Z,5.40
2023-02-28T14:13:01.509Z,4.57
2023-02-28T14:16:05.848Z,4.90
2023-02-28T14:18:36.003Z,6.37
2023-02-28T14:21:12.913Z,5.27
2023-02-28T14:24:24.083Z,6.27
2023-02-28T14:27:08.155Z,5.23
2023-02-28T14:29:58.203Z,5.20
2023-02-28T14:32:32.047Z,5.50
2023-02-28T14:35:11.942Z,5.87
2023-02-28T14:37:43.053Z,5.83
2023-02-28T14:40:18.014Z,5.70
2023-02-28T14:42:56.264Z,5.80
2023-02-28T14:45:26.001Z,5.67
2023-02-28T14:47:54.337Z,5.37
2023-02-28T14:50:24.686Z,5.53
2023-02-28T14:52:55.913Z,6.10
2023-02-28T14:55:27.832Z,5.90
2023-02-28T14:57:57.518Z,5.60
2023-02-28T15:00:29.781Z,5.23
2023-02-28T15:02:58.943Z,6.03
2023-02-28T15:05:30.451Z,5.10
2023-02-28T15:08:07.625Z,5.33
2023-02-28T15:10:36.009Z,5.83
2023-02-28T15:13:07.614Z,5.27
2023-02-28T15:16:02.080Z,5.13
2023-02-28T15:18:42.524Z,5.67
2023-02-28T15:21:14.004Z,5.43
2023-02-28T15:23:44.082Z,5.80
2023-02-28T15:26:15.842Z,5.80
2023-02-28T15:28:43.875Z,5.90
2023-02-28T15:31:25.014Z,6.43
2023-02-28T15:33:57.826Z,5.17
2023-02-28T15:36:28.756Z,6.07
2023-02-28T15:39:01.598Z,5.53
2023-02-28T15:41:39.406Z,5.90
2023-02-28T15:44:19.370Z,5.67
2023-02-28T15:46:58.984Z,5.53
2023-02-28T15:49:27.584Z,5.37
2023-02-28T15:51:58.058Z,5.83
2023-02-28T15:54:30.386Z,5.43
2023-02-28T15:57:00.278Z,6.23
2023-02-28T15:59:30.783Z,6.00
2023-02-28T16:02:18.800Z,6.50
2023-02-28T16:05:28.851Z,5.70
2023-02-28T16:07:57.744Z,5.73
2023-02-28T16:10:27.768Z,6.07
2023-02-28T16:12:56.839Z,5.73
2023-02-28T16:15:27.764Z,5.37
2023-02-28T16:17:58.157Z,5.90
2023-02-28T16:20:28.676Z,5.90
2023-02-28T16:22:57.160Z,6.47
2023-02-28T16:25:28.726Z,6.67
2023-02-28T16:27:58.413Z,5.93
2023-02-28T16:30:28.387Z,6.80
2023-02-28T16:32:57.910Z,6.37
2023-02-28T16:35:26.351Z,6.23
2023-02-28T16:37:54.475Z,6.17
2023-02-28T16:40:26.157Z,6.13
2023-02-28T16:42:59.403Z,6.63
2023-02-28T16:45:28.440Z,6.60
2023-02-28T16:47:58.215Z,6.57
2023-02-28T16:50:28.189Z,6.47
2023-02-28T16:52:56.218Z,6.87
2023-02-28T16:55:25.233Z,6.77
2023-02-28T16:57:55.280Z,6.83
2023-02-28T17:00:24.111Z,5.97
2023-02-28T17:02:52.289Z,6.73
2023-02-28T17:05:22.362Z,6.80
2023-02-28T17:07:50.642Z,7.00
2023-02-28T17:10:20.506Z,6.17
2023-02-28T17:12:48.302Z,7.23
2023-02-28T17:15:17.822Z,6.47
2023-02-28T17:17:46.403Z,6.10
2023-02-28T17:20:15.792Z,6.07
2023-02-28T17:22:44.939Z,5.83
2023-02-28T17:25:13.132Z,6.17
2023-02-28T17:27:40.903Z,7.07
2023-02-28T17:30:17.259Z,6.90
2023-02-28T17:32:45.259Z,5.90
2023-02-28T17:35:13.251Z,6.73
2023-02-28T17:37:41.176Z,7.60
2023-02-28T17:40:15.716Z,6.77
2023-02-28T17:42:43.626Z,6.53
2023-02-28T17:45:12.534Z,6.87
2023-02-28T17:47:40.953Z,6.90
2023-02-28T17:50:13.423Z,7.40
2023-02-28T17:52:41.218Z,7.53
2023-02-28T17:55:11.473Z,6.40
2023-02-28T17:57:39.488Z,7.07
2023-02-28T18:00:08.851Z,7.13
2023-02-28T18:02:36.653Z,6.60
2023-02-28T18:05:05.310Z,6.47
2023-02-28T18:07:33.162Z,6.80
2023-02-28T18:10:00.995Z,6.77
2023-02-28T18:12:30.859Z,7.07
2023-02-28T18:14:59.032Z,7.03
2023-02-28T18:17:27.258Z,6.70
2023-02-28T18:19:55.059Z,7.37
2023-02-28T18:22:22.869Z,7.73
2023-02-28T18:24:50.760Z,8.43
2023-02-28T18:27:18.482Z,8.13
2023-02-28T18:29:49.444Z,7.40
2023-02-28T18:32:17.360Z,7.27
2023-02-28T18:34:45.187Z,7.90
2023-02-28T18:37:13.021Z,7.63
2023-02-28T18:39:41.123Z,8.17
2023-02-28T18:42:08.957Z,7.90
2023-02-28T18:44:38.265Z,7.10
2023-02-28T18:47:07.423Z,7.23
2023-02-28T18:49:35.652Z,7.03
2023-02-28T18:52:03.646Z,8.40
2023-02-28T18:54:31.425Z,7.87
2023-02-28T18:56:59.193Z,7.40
2023-02-28T18:59:27.617Z,7.40
2023-02-28T19:01:55.387Z,7.10
2023-02-28T19:04:24.560Z,7.47
2023-02-28T19:06:52.319Z,7.37
2023-02-28T19:09:20.167Z,7.50
2023-02-28T19:11:47.914Z,7.83
2023-02-28T19:14:15.701Z,6.93
2023-02-28T19:16:43.555Z,7.57
2023-02-28T19:19:11.455Z,8.23
2023-02-28T19:21:40.615Z,9.13
2023-02-28T19:24:08.517Z,8.27
2023-02-28T19:26:36.563Z,8.07
2023-02-28T19:29:05.344Z,8.57
2023-02-28T19:31:33.535Z,8.73
2023-02-28T19:34:01.869Z,8.20
2023-02-28T19:36:29.628Z,8.50
2023-02-28T19:38:58.740Z,7.80
2023-02-28T19:41:26.912Z,8.43
2023-02-28T19:43:55.349Z,8.23
2023-02-28T19:46:23.146Z,8.33
2023-02-28T19:48:54.504Z,8.40
2023-02-28T19:51:22.730Z,8.17
2023-02-28T19:53:50.552Z,7.93
2023-02-28T19:56:19.666Z,7.77
2023-02-28T19:58:47.456Z,9.23
2023-02-28T20:01:17.675Z,9.23
2023-02-28T20:03:48.882Z,10.50
2023-02-28T20:06:16.904Z,10.33
2023-02-28T20:08:44.967Z,10.53
2023-02-28T20:11:15.491Z,10.67
2023-02-28T20:13:45.161Z,10.10
2023-02-28T20:16:14.433Z,9.87
2023-02-28T20:18:43.974Z,10.47
2023-02-28T20:21:12.698Z,11.83
2023-02-28T20:23:40.930Z,11.67
2023-02-28T20:26:09.798Z,11.10
2023-02-28T20:28:38.390Z,10.67
2023-02-28T20:31:13.629Z,10.97
2023-02-28T20:33:41.935Z,10.00
2023-02-28T20:36:10.118Z,10.07
2023-02-28T20:38:38.025Z,9.33
2023-02-28T20:41:06.937Z,8.77
2023-02-28T20:43:34.817Z,10.07
2023-02-28T20:46:02.988Z,9.47
2023-02-28T20:48:35.499Z,10.00
2023-02-28T20:51:05.053Z,9.83
2023-02-28T20:53:34.495Z,9.67
2023-02-28T20:56:04.469Z,9.63
2023-02-28T20:58:34.333Z,9.63
2023-02-28T21:01:03.024Z,8.50
2023-02-28T21:03:32.621Z,8.83
2023-02-28T21:06:04.381Z,9.00
2023-02-28T21:08:32.239Z,9.73
2023-02-28T21:11:00.116Z,9.13
2023-02-28T21:13:27.930Z,9.80
2023-02-28T21:15:55.933Z,9.07
2023-02-28T21:18:23.774Z,8.67
2023-02-28T21:20:52.852Z,8.83
2023-02-28T21:23:20.819Z,8.80
2023-02-28T21:25:49.698Z,8.33
2023-02-28T21:28:17.483Z,8.80
2023-02-28T21:30:45.238Z,9.33
2023-02-28T21:33:13.172Z,9.07
2023-02-28T21:35:40.970Z,9.37
2023-02-28T21:38:10.118Z,9.50
2023-02-28T21:40:38.165Z,8.63
2023-02-28T21:43:05.919Z,9.43
2023-02-28T21:45:35.620Z,8.27
2023-02-28T21:48:03.400Z,9.33
2023-02-28T21:50:31.168Z,9.47
2023-02-28T21:52:58.955Z,8.60
2023-02-28T21:55:28.085Z,8.73
2023-02-28T21:57:55.858Z,8.83
2023-02-28T22:00:23.908Z,8.73
2023-02-28T22:02:51.728Z,9.43
2023-02-28T22:05:19.495Z,8.20
2023-02-28T22:07:47.242Z,8.60
2023-02-28T22:10:15.087Z,8.27
2023-02-28T22:12:44.257Z,8.63
2023-02-28T22:15:13.184Z,8.63
2023-02-28T22:17:40.967Z,8.60
2023-02-28T22:20:09.811Z,8.80
2023-02-28T22:22:37.550Z,9.17
2023-02-28T22:25:06.386Z,9.63
2023-02-28T22:27:35.039Z,9.50
2023-02-28T22:30:04.608Z,8.73
2023-02-28T22:32:32.479Z,8.80
2023-02-28T22:35:00.352Z,8.53
2023-02-28T22:37:28.162Z,9.00
2023-02-28T22:39:55.946Z,9.33
2023-02-28T22:42:23.734Z,9.27
2023-02-28T22:44:51.791Z,8.97
2023-02-28T22:47:22.192Z,8.97
2023-02-28T22:49:49.954Z,8.73
2023-02-28T22:52:17.688Z,8.33
2023-02-28T22:54:45.478Z,9.07
2023-02-28T22:57:13.235Z,8.00
2023-02-28T22:59:41.318Z,7.80
2023-02-28T23:02:09.094Z,7.97
2023-02-28T23:04:38.229Z,8.67
2023-02-28T23:07:06.020Z,8.07
2023-02-28T23:09:33.805Z,7.60
2023-02-28T23:12:01.584Z,7.80
2023-02-28T23:14:29.381Z,8.10
2023-02-28T23:16:57.201Z,8.13
2023-02-28T23:19:27.623Z,8.50
2023-02-28T23:21:57.538Z,8.17
2023-02-28T23:24:27.912Z,9.00
2023-02-28T23:26:58.484Z,8.90
2023-02-28T23:29:27.478Z,8.40
2023-02-28T23:31:56.128Z,8.63
2023-02-28T23:34:26.359Z,8.97
2023-02-28T23:36:56.651Z,7.73
2023-02-28T23:39:26.440Z,8.23
2023-02-28T23:41:54.459Z,8.03
2023-02-28T23:44:22.378Z,8.10
2023-02-28T23:46:52.802Z,7.63
2023-02-28T23:49:22.119Z,8.60
2023-02-28T23:51:50.619Z,8.50
2023-02-28T23:54:20.060Z,8.10
2023-02-28T23:56:48.208Z,7.47
2023-02-28T23:59:15.998Z,7.23
